Pride Of Kent — MQCJ2 — position and weather

sailwx.info

Track history (hours):
 
Tides and Currents Weather Stations Pressure Air Temp Water Temp Dewpoint Dewpoint Depression Visibility Wind Speed Wind Dir Waves Ship Positions

Pride Of Kent

Operator: P & O Ferries

Last reported at 2019-Jan-23 17:30 UTC. Time now 2019-Jan-23 17:57 UTC.
Position N 51°06' E 001°23'.

Length 180 m; draft 6 m.

Type: Passenger vessel. MMSI: 232009000.

Date/timePositionNaut miles runAvg speedWind from/ knotsBaromVisibWave heightAir tempDewpointWater temp
2019-Jan-23 17:30N 51°06' E 001°23'2 3.0
2019-Jan-23 16:54N 51°07' E 001°20'0 0.2
2019-Jan-23 16:28N 51°07' E 001°20'612.4
2019-Jan-23 16:00N 51°06' E 001°29'917.7
2019-Jan-23 15:31N 51°00' E 001°40'714.2
2019-Jan-23 15:00N 50°58' E 001°51'0 0.2
2019-Jan-23 14:30N 50°58' E 001°51'1 2.1
2019-Jan-23 14:00N 50°58' E 001°49'1019.5
2019-Jan-23 13:30N 51°00' E 001°34'919.3
2019-Jan-23 13:01N 51°06' E 001°22'2 3.5
2019-Jan-23 12:30N 51°07' E 001°20'0 0.2
2019-Jan-23 11:58N 51°07' E 001°20'715.0
2019-Jan-23 11:30N 51°04' E 001°30'918.6
2019-Jan-23 11:00N 50°59' E 001°42'6 8.3
2019-Jan-23 10:20N 50°58' E 001°51'0 0.0
2019-Jan-23 10:00N 50°58' E 001°51'1 2.8
2019-Jan-23 09:30N 50°58' E 001°49'816.2
2019-Jan-23 09:00N 50°59' E 001°36'918.6
2019-Jan-23 08:30N 51°05' E 001°25'4 7.0
2019-Jan-23 08:00N 51°07' E 001°20'0 0.0
2019-Jan-23 07:30N 51°07' E 001°20'1 2.4
2019-Jan-23 07:01N 51°07' E 001°22'816.8
2019-Jan-23 06:31N 51°03' E 001°34'917.4
2019-Jan-23 06:01N 50°58' E 001°45'4 7.7
2019-Jan-23 05:31N 50°58' E 001°51'0 0.0
2019-Jan-23 05:00N 50°58' E 001°51'1 1.9
2019-Jan-23 04:31N 50°58' E 001°50'815.9
2019-Jan-23 04:00N 51°01' E 001°38'917.6
2019-Jan-23 03:31N 51°06' E 001°26'4 8.3
2019-Jan-23 03:00N 51°07' E 001°20'0 0.0
2019-Jan-23 02:30N 51°07' E 001°20'0 0.2
2019-Jan-23 02:00N 51°07' E 001°20'815.4
2019-Jan-23 01:30N 51°05' E 001°32'917.5
2019-Jan-23 01:01N 50°60' E 001°43'510.6
2019-Jan-23 00:30N 50°58' E 001°51'0 0.0
2019-Jan-22 23:50N 50°58' E 001°51'0 0.1
2019-Jan-22 23:30N 50°58' E 001°51'814.5
2019-Jan-22 22:58N 50°58' E 001°39'817.6
2019-Jan-22 22:30N 51°03' E 001°28'713.5
2019-Jan-22 22:01N 51°07' E 001°20'0 0.0
2019-Jan-22 21:30N 51°07' E 001°20'0 0.4
2019-Jan-22 20:58N 51°07' E 001°20'511.7
2019-Jan-22 20:30N 51°05' E 001°28'918.5
2019-Jan-22 20:01N 50°60' E 001°40'713.9
2019-Jan-22 19:30N 50°58' E 001°51'0 0.1
2019-Jan-22 19:00N 50°58' E 001°51'2 4.1
2019-Jan-22 18:31N 50°58' E 001°48'917.3
2019-Jan-22 18:00N 51°00' E 001°34'1019.5
2019-Jan-22 17:30N 51°06' E 001°22'2 2.1
2019-Jan-22 16:37N 51°07' E 001°20'0 1.3
2019-Jan-22 16:30N 51°07' E 001°20'917.2
2019-Jan-22 16:00N 51°04' E 001°33'918.9
2019-Jan-22 15:30N 50°58' E 001°45'4 7.8
2019-Jan-22 15:00N 50°58' E 001°51'0 0.0
2019-Jan-22 14:23N 50°58' E 001°51'410.7
2019-Jan-22 14:00N 50°58' E 001°44'918.8
2019-Jan-22 13:30N 51°03' E 001°32'917.1
2019-Jan-22 13:00N 51°07' E 001°20'0 0.5
2019-Jan-22 12:31N 51°07' E 001°20'1 1.1
2019-Jan-22 12:01N 51°07' E 001°21'816.9
2019-Jan-22 11:30N 51°03' E 001°33'917.1
2019-Jan-22 11:00N 50°59' E 001°44'4 4.8
2019-Jan-22 10:06N 50°58' E 001°51'0 0.0
2019-Jan-22 10:00N 50°58' E 001°51'2 4.1
2019-Jan-22 09:30N 50°58' E 001°48'918.0
2019-Jan-22 09:00N 51°00' E 001°34'918.6
2019-Jan-22 08:30N 51°06' E 001°23'2 3.6
2019-Jan-22 08:00N 51°07' E 001°20'0 0.0
2019-Jan-22 07:30N 51°07' E 001°20'2 4.2
2019-Jan-22 07:01N 51°07' E 001°23'816.3
2019-Jan-22 06:30N 51°03' E 001°34'918.2
2019-Jan-22 06:00N 50°58' E 001°47'3 5.2
2019-Jan-22 05:29N 50°58' E 001°51'0 0.0
2019-Jan-22 04:50N 50°58' E 001°51'0 0.7
2019-Jan-22 04:31N 50°58' E 001°51'816.9
2019-Jan-22 04:01N 50°59' E 001°37'918.4
2019-Jan-22 03:31N 51°05' E 001°26'4 4.3
2019-Jan-22 02:30N 51°07' E 001°20'0 0.0
2019-Jan-22 02:00N 51°07' E 001°20'612.6
2019-Jan-22 01:30N 51°06' E 001°30'918.6
2019-Jan-22 01:00N 51°00' E 001°41'6 9.4
2019-Jan-22 00:20N 50°58' E 001°51'0 0.0
2019-Jan-21 23:44N 50°58' E 001°51'0 0.1
2019-Jan-21 23:29N 50°58' E 001°51'917.6
2019-Jan-21 22:59N 50°59' E 001°37'918.3
2019-Jan-21 22:30N 51°05' E 001°27'5 9.9
2019-Jan-21 22:00N 51°07' E 001°20'0 0.0
2019-Jan-21 21:31N 51°07' E 001°20'0 0.0
2019-Jan-21 21:01N 51°07' E 001°20'612.2
2019-Jan-21 20:30N 51°06' E 001°29'918.1
2019-Jan-21 20:00N 50°59' E 001°40'713.6
2019-Jan-21 19:29N 50°58' E 001°51'0 0.0
2019-Jan-21 19:00N 50°58' E 001°51'3 5.4
2019-Jan-21 18:30N 50°58' E 001°47'917.2
2019-Jan-21 18:00N 51°01' E 001°34'918.2
2019-Jan-21 17:30N 51°06' E 001°23'2 3.6
2019-Jan-21 17:00N 51°07' E 001°20'0 0.3
2019-Jan-21 16:30N 51°07' E 001°20'917.6
2019-Jan-21 16:00N 51°03' E 001°33'1019.4
2019-Jan-21 15:31N 50°58' E 001°45'3 6.2
2019-Jan-21 14:57N 50°58' E 001°51'0 0.0
2019-Jan-21 14:30N 50°58' E 001°51'511.0
2019-Jan-21 14:00N 50°59' E 001°43'1019.8
2019-Jan-21 13:30N 51°04' E 001°29'711.5
2019-Jan-21 12:55N 51°07' E 001°20'0 0.0
2019-Jan-21 12:19N 51°07' E 001°20'0 0.6
2019-Jan-21 12:00N 51°07' E 001°20'715.1
2019-Jan-21 11:30N 51°05' E 001°32'918.4
2019-Jan-21 11:00N 50°59' E 001°43'5 8.3
2019-Jan-21 10:23N 50°58' E 001°51'0 0.0
2019-Jan-21 09:56N 50°58' E 001°51'0 0.7
2019-Jan-21 09:31N 50°58' E 001°51'918.3
2019-Jan-21 09:01N 51°00' E 001°36'1019.5
2019-Jan-21 08:31N 51°06' E 001°24'3 5.3
2019-Jan-21 07:59N 51°07' E 001°20'0 0.0
2019-Jan-21 07:22N 51°07' E 001°20'3 7.9
2019-Jan-21 07:00N 51°07' E 001°25'816.9
2019-Jan-21 06:31N 51°02' E 001°36'815.1
2019-Jan-21 06:00N 50°58' E 001°46'3 6.3
2019-Jan-21 05:29N 50°58' E 001°51'0 0.0
2019-Jan-21 04:55N 50°58' E 001°51'2 5.6
2019-Jan-21 04:30N 50°58' E 001°47'816.6
2019-Jan-21 04:00N 51°00' E 001°35'918.4
2019-Jan-21 03:30N 51°06' E 001°23'2 4.9
2019-Jan-21 03:00N 51°07' E 001°20'0 0.0
2019-Jan-21 02:30N 51°07' E 001°20'1 2.5
2019-Jan-21 02:00N 51°07' E 001°22'815.7
2019-Jan-21 01:31N 51°04' E 001°33'816.4
2019-Jan-21 01:00N 50°59' E 001°44'5 8.3
2019-Jan-21 00:26N 50°58' E 001°51'0 0.0
2019-Jan-20 23:53N 50°58' E 001°51'0 0.0
2019-Jan-20 23:30N 50°58' E 001°51'714.2
2019-Jan-20 23:00N 50°58' E 001°40'816.3
2019-Jan-20 22:30N 51°03' E 001°29'714.8
2019-Jan-20 22:00N 51°07' E 001°20'0 0.1
2019-Jan-20 21:30N 51°07' E 001°20'0 0.0
2019-Jan-20 21:00N 51°07' E 001°20'510.6
2019-Jan-20 20:31N 51°05' E 001°28'1019.1
2019-Jan-20 20:01N 51°00' E 001°41'713.8
2019-Jan-20 19:30N 50°58' E 001°51'0 0.0
2019-Jan-20 19:00N 50°58' E 001°51'4 7.1
2019-Jan-20 18:30N 50°58' E 001°45'816.1
2019-Jan-20 18:00N 51°01' E 001°34'817.0
2019-Jan-20 17:31N 51°06' E 001°22'2 4.4
2019-Jan-20 17:00N 51°07' E 001°20'0 0.0
2019-Jan-20 16:29N 51°07' E 001°20'612.3
2019-Jan-20 16:00N 51°05' E 001°28'1019.4
2019-Jan-20 15:30N 50°59' E 001°41'612.4
2019-Jan-20 15:00N 50°58' E 001°51'0 0.0
2019-Jan-20 14:27N 50°58' E 001°51'1 2.0
2019-Jan-20 14:00N 50°58' E 001°50'918.4
2019-Jan-20 13:30N 51°01' E 001°36'1020.1
2019-Jan-20 13:00N 51°07' E 001°23'2 3.6
2019-Jan-20 12:30N 51°07' E 001°20'0 0.6
2019-Jan-20 11:59N 51°07' E 001°20'715.6
2019-Jan-20 11:30N 51°04' E 001°31'918.5
2019-Jan-20 11:00N 50°59' E 001°43'5 8.4
2019-Jan-20 10:25N 50°58' E 001°51'0 0.0
2019-Jan-20 09:57N 50°58' E 001°51'0 0.5
2019-Jan-20 09:28N 50°58' E 001°51'918.5
2019-Jan-20 09:00N 50°60' E 001°37'1019.8
2019-Jan-20 08:30N 51°06' E 001°25'3 6.7
2019-Jan-20 08:00N 51°07' E 001°20'0 0.0
2019-Jan-20 07:30N 51°07' E 001°20'1 1.8
2019-Jan-20 07:00N 51°07' E 001°21'918.2
2019-Jan-20 06:30N 51°03' E 001°34'1019.1
2019-Jan-20 06:00N 50°58' E 001°47'2 4.6
2019-Jan-20 05:29N 50°58' E 001°51'0 0.0
2019-Jan-20 04:57N 50°58' E 001°51'1 2.0
2019-Jan-20 04:31N 50°58' E 001°50'816.8
2019-Jan-20 04:01N 51°00' E 001°37'1019.3
2019-Jan-20 03:31N 51°06' E 001°24'3 5.8
2019-Jan-20 03:00N 51°07' E 001°20'0 0.0
2019-Jan-20 02:30N 51°07' E 001°20'0 0.0
2019-Jan-20 02:00N 51°07' E 001°20'714.0
2019-Jan-20 01:30N 51°05' E 001°30'917.4
2019-Jan-20 01:00N 50°60' E 001°41'612.3
2019-Jan-20 00:30N 50°58' E 001°51'0 0.0
2019-Jan-20 00:00N 50°58' E 001°51'0 0.5
2019-Jan-19 23:17N 50°58' E 001°51'518.5
2019-Jan-19 23:01N 50°58' E 001°42'816.2
2019-Jan-19 22:30N 51°03' E 001°32'917.4
2019-Jan-19 22:00N 51°07' E 001°20'0 0.2
2019-Jan-19 21:25N 51°07' E 001°20'0 0.9
2019-Jan-19 21:00N 51°07' E 001°21'918.6
2019-Jan-19 20:30N 51°04' E 001°35'918.8
2019-Jan-19 20:01N 50°58' E 001°46'3 6.8
2019-Jan-19 19:30N 50°58' E 001°52'0 0.0
2019-Jan-19 19:00N 50°58' E 001°52'0 0.0
2019-Jan-19 18:30N 50°58' E 001°52'0 0.0
2019-Jan-19 17:59N 50°58' E 001°52'0 0.0
2019-Jan-19 17:26N 50°58' E 001°52'0 0.0
2019-Jan-19 16:58N 50°58' E 001°52'0 0.0
2019-Jan-19 16:27N 50°58' E 001°52'0 0.0
2019-Jan-19 15:57N 50°58' E 001°52'0 0.0
2019-Jan-19 15:30N 50°58' E 001°52'0 0.0
2019-Jan-19 15:00N 50°58' E 001°52'0 0.0
2019-Jan-19 14:30N 50°58' E 001°52'0 0.0
2019-Jan-19 14:00N 50°58' E 001°52'0 0.0
2019-Jan-19 13:29N 50°58' E 001°52'0 0.0
2019-Jan-19 13:00N 50°58' E 001°52'0 0.0
2019-Jan-19 12:30N 50°58' E 001°52'0 0.0
2019-Jan-19 12:00N 50°58' E 001°52'0 0.0
2019-Jan-19 11:30N 50°58' E 001°52'0 0.0
2019-Jan-19 11:00N 50°58' E 001°52'0 0.0
2019-Jan-19 10:30N 50°58' E 001°52'0 0.0
2019-Jan-19 10:00N 50°58' E 001°52'1 2.6
2019-Jan-19 09:31N 50°58' E 001°50'1019.2
2019-Jan-19 09:01N 51°00' E 001°35'918.1
2019-Jan-19 08:31N 51°06' E 001°24'3 4.9
2019-Jan-19 07:58N 51°07' E 001°20'0 0.0
2019-Jan-19 07:31N 51°07' E 001°20'0 0.5
2019-Jan-19 07:00N 51°07' E 001°20'816.8
2019-Jan-19 06:30N 51°04' E 001°32'1019.5
2019-Jan-19 06:01N 50°58' E 001°45'4 7.0
2019-Jan-19 05:27N 50°58' E 001°51'0 0.0
2019-Jan-19 04:59N 50°58' E 001°51'4 8.1
2019-Jan-19 04:30N 50°58' E 001°45'815.6
2019-Jan-19 04:00N 50°59' E 001°33'816.4
2019-Jan-19 03:31N 51°05' E 001°25'4 7.0
2019-Jan-19 03:00N 51°07' E 001°20'0 0.0
2019-Jan-19 02:30N 51°07' E 001°20'0 0.5
2019-Jan-19 02:00N 51°07' E 001°20'714.2
2019-Jan-19 01:30N 51°04' E 001°30'917.2
2019-Jan-19 01:00N 50°60' E 001°42'611.8
2019-Jan-19 00:30N 50°58' E 001°51'0 0.0
2019-Jan-18 23:59N 50°58' E 001°51'0 0.2
2019-Jan-18 23:27N 50°58' E 001°51'816.7
2019-Jan-18 23:00N 50°58' E 001°39'918.0
2019-Jan-18 22:30N 51°03' E 001°27'612.0
2019-Jan-18 22:00N 51°07' E 001°20'0 0.0
2019-Jan-18 21:30N 51°07' E 001°20'0 0.2
2019-Jan-18 20:59N 51°07' E 001°20'714.9
2019-Jan-18 20:31N 51°06' E 001°31'917.4
2019-Jan-18 20:01N 50°60' E 001°41'612.7
2019-Jan-18 19:31N 50°58' E 001°51'0 0.2
2019-Jan-18 18:56N 50°58' E 001°51'1 2.8
2019-Jan-18 18:31N 50°58' E 001°49'816.8
2019-Jan-18 18:01N 50°60' E 001°36'917.3
2019-Jan-18 17:31N 51°05' E 001°25'4 7.7
2019-Jan-18 17:00N 51°07' E 001°20'0 0.0
2019-Jan-18 16:30N 51°07' E 001°20'611.6
2019-Jan-18 16:00N 51°06' E 001°29'918.9
2019-Jan-18 15:30N 50°60' E 001°41'713.5
2019-Jan-18 15:00N 50°58' E 001°51'0 0.0
2019-Jan-18 14:29N 50°58' E 001°51'1 1.8
2019-Jan-18 14:00N 50°58' E 001°50'917.2
2019-Jan-18 13:30N 50°60' E 001°36'918.8
2019-Jan-18 13:00N 51°05' E 001°24'3 6.7
2019-Jan-18 12:31N 51°07' E 001°20'0 0.0
2019-Jan-18 12:00N 51°07' E 001°20'611.4
2019-Jan-18 11:31N 51°05' E 001°28'918.9
2019-Jan-18 11:01N 50°60' E 001°40'713.6
2019-Jan-18 10:30N 50°58' E 001°51'0 0.2
2019-Jan-18 09:59N 50°58' E 001°51'0 1.0
2019-Jan-18 09:30N 50°58' E 001°50'1019.0
2019-Jan-18 08:59N 51°01' E 001°35'919.4
2019-Jan-18 08:31N 51°06' E 001°23'2 4.3
2019-Jan-18 08:00N 51°07' E 001°20'0 0.0
2019-Jan-18 07:30N 51°07' E 001°20'1 1.4
2019-Jan-18 07:00N 51°07' E 001°21'918.7
2019-Jan-18 06:31N 51°02' E 001°34'918.5
2019-Jan-18 06:00N 50°58' E 001°47'3 4.8
2019-Jan-18 05:28N 50°58' E 001°51'0 0.0
2019-Jan-18 04:58N 50°58' E 001°51'0 0.8
2019-Jan-18 04:31N 50°58' E 001°51'816.0
2019-Jan-18 04:00N 50°59' E 001°38'917.9
2019-Jan-18 03:30N 51°05' E 001°26'5 9.2
2019-Jan-18 02:59N 51°07' E 001°20'0 0.0
2019-Jan-18 02:30N 51°07' E 001°20'0 0.5
2019-Jan-18 02:00N 51°07' E 001°20'816.5
2019-Jan-18 01:30N 51°05' E 001°33'917.1
2019-Jan-18 01:00N 50°59' E 001°43'510.5
2019-Jan-18 00:30N 50°58' E 001°51'0 0.0
2019-Jan-17 23:57N 50°58' E 001°51'511.9
2019-Jan-17 23:30N 50°58' E 001°43'1019.2
2019-Jan-17 23:00N 51°03' E 001°29'7 7.9
2019-Jan-17 22:05N 51°07' E 001°20'0 0.0
2019-Jan-17 21:57N 51°07' E 001°20'1 2.2
2019-Jan-17 21:30N 51°07' E 001°22'917.5
2019-Jan-17 21:01N 51°03' E 001°33'917.1
2019-Jan-17 20:31N 50°58' E 001°45'4 6.7
2019-Jan-17 19:57N 50°58' E 001°51'0 0.0
2019-Jan-17 19:24N 50°58' E 001°51'2 6.3
2019-Jan-17 19:00N 50°58' E 001°47'612.3
2019-Jan-17 18:29N 51°00' E 001°38'918.8
2019-Jan-17 18:01N 51°05' E 001°25'4 8.2
2019-Jan-17 17:30N 51°07' E 001°20'0 0.0
2019-Jan-17 16:59N 51°07' E 001°20'4 9.2
2019-Jan-17 16:30N 51°06' E 001°27'918.4
2019-Jan-17 16:00N 51°01' E 001°39'816.2
2019-Jan-17 15:30N 50°58' E 001°51'0 0.3
2019-Jan-17 15:00N 50°58' E 001°51'0 0.0
2019-Jan-17 14:30N 50°58' E 001°51'510.0
2019-Jan-17 14:01N 50°58' E 001°43'918.2
2019-Jan-17 13:31N 51°01' E 001°29'916.9
2019-Jan-17 13:00N 51°07' E 001°20'0 0.5
2019-Jan-17 12:30N 51°07' E 001°20'0 0.0
2019-Jan-17 11:59N 51°07' E 001°20'612.3
2019-Jan-17 11:30N 51°06' E 001°29'917.6
2019-Jan-17 11:00N 51°01' E 001°41'713.8
2019-Jan-17 10:30N 50°58' E 001°51'0 0.2
2019-Jan-17 09:57N 50°58' E 001°51'0 0.2
2019-Jan-17 09:30N 50°58' E 001°51'916.8
2019-Jan-17 08:59N 51°00' E 001°38'919.7
2019-Jan-17 08:30N 51°05' E 001°25'4 7.3
2019-Jan-17 08:00N 51°07' E 001°20'0 0.0
2019-Jan-17 07:30N 51°07' E 001°20'0 0.7
2019-Jan-17 07:01N 51°07' E 001°21'917.2
2019-Jan-17 06:31N 51°03' E 001°33'918.0
2019-Jan-17 06:01N 50°58' E 001°45'4 4.6
2019-Jan-17 05:09N 50°58' E 001°51'0 0.0
2019-Jan-17 04:49N 50°58' E 001°51'3 9.3
2019-Jan-17 04:31N 50°58' E 001°46'816.3
2019-Jan-17 04:00N 50°60' E 001°33'816.9
2019-Jan-17 03:31N 51°06' E 001°25'3 2.9
2019-Jan-17 02:25N 51°07' E 001°20'2 4.2
2019-Jan-17 02:01N 51°07' E 001°23'816.8
2019-Jan-17 01:30N 51°04' E 001°35'816.4
2019-Jan-17 01:01N 50°58' E 001°44'4 8.3
2019-Jan-17 00:30N 50°58' E 001°51'0 0.0
2019-Jan-17 00:00N 50°58' E 001°51'4 8.9
2019-Jan-16 23:30N 50°58' E 001°44'1019.2
2019-Jan-16 23:00N 51°03' E 001°31'815.7
2019-Jan-16 22:29N 51°07' E 001°20'0 0.0
2019-Jan-16 22:00N 51°07' E 001°20'0 0.3
2019-Jan-16 21:30N 51°07' E 001°20'816.6
2019-Jan-16 21:00N 51°03' E 001°32'917.9
2019-Jan-16 20:30N 50°59' E 001°44'5 5.0
2019-Jan-16 19:35N 50°58' E 001°51'0 0.0
2019-Jan-16 19:30N 50°58' E 001°51'2 4.9
2019-Jan-16 19:00N 50°58' E 001°47'612.3
2019-Jan-16 18:30N 50°58' E 001°37'918.2
2019-Jan-16 18:00N 51°04' E 001°26'5 4.6
2019-Jan-16 16:54N 51°07' E 001°20'1 3.0
2019-Jan-16 16:30N 51°07' E 001°22'917.2
2019-Jan-16 16:00N 51°04' E 001°34'918.4
2019-Jan-16 15:30N 50°58' E 001°46'3 6.1
2019-Jan-16 15:00N 50°58' E 001°51'0 0.0
2019-Jan-16 14:30N 50°58' E 001°51'714.0
2019-Jan-16 14:00N 50°59' E 001°40'918.4
2019-Jan-16 13:30N 51°04' E 001°28'6 4.0
2019-Jan-16 12:03N 51°07' E 001°20'0 0.9
2019-Jan-16 12:00N 51°07' E 001°20'816.4
2019-Jan-16 11:30N 51°04' E 001°32'918.6
2019-Jan-16 11:00N 50°59' E 001°44'5 5.3
2019-Jan-16 10:09N 50°58' E 001°51'0 0.0
2019-Jan-16 09:58N 50°58' E 001°51'510.3
2019-Jan-16 09:30N 50°58' E 001°44'918.4
2019-Jan-16 09:00N 51°03' E 001°31'816.2
2019-Jan-16 08:30N 51°07' E 001°20'0 0.0
2019-Jan-16 07:32N 51°07' E 001°20'0 0.0
2019-Jan-16 07:17N 51°07' E 001°20'1 2.3
2019-Jan-16 07:00N 51°07' E 001°21'817.0
2019-Jan-16 06:30N 51°03' E 001°33'917.5
2019-Jan-16 06:00N 50°58' E 001°45'4 6.8
2019-Jan-16 05:24N 50°58' E 001°51'0 0.0
2019-Jan-16 05:00N 50°58' E 001°51'0 0.8
2019-Jan-16 04:30N 50°58' E 001°50'917.8
2019-Jan-16 04:00N 50°58' E 001°36'815.8
2019-Jan-16 03:30N 51°04' E 001°28'6 3.9
2019-Jan-16 02:02N 51°07' E 001°20'0 2.3
2019-Jan-16 01:59N 51°07' E 001°20'715.4
2019-Jan-16 01:30N 51°04' E 001°31'918.9
2019-Jan-16 01:00N 50°59' E 001°43'5 8.7
2019-Jan-16 00:25N 50°58' E 001°51'0 0.0
2019-Jan-15 23:59N 50°58' E 001°51'0 0.0
2019-Jan-15 23:30N 50°58' E 001°51'4 8.6
2019-Jan-15 23:00N 50°58' E 001°44'917.0
2019-Jan-15 22:30N 51°03' E 001°33'917.7
2019-Jan-15 22:00N 51°07' E 001°21'1 1.1
2019-Jan-15 21:30N 51°07' E 001°20'0 0.0
2019-Jan-15 20:59N 51°07' E 001°20'511.0
2019-Jan-15 20:30N 51°06' E 001°28'917.7
2019-Jan-15 20:01N 51°01' E 001°40'815.3
2019-Jan-15 19:31N 50°58' E 001°51'0 0.3
2019-Jan-15 18:55N 50°58' E 001°51'2 5.9
2019-Jan-15 18:31N 50°58' E 001°47'1019.3
2019-Jan-15 18:01N 51°02' E 001°33'1019.0
2019-Jan-15 17:30N 51°07' E 001°21'0 0.3
2019-Jan-15 16:37N 51°07' E 001°20'0 1.3
2019-Jan-15 16:30N 51°07' E 001°20'714.7
2019-Jan-15 16:00N 51°06' E 001°32'918.7
2019-Jan-15 15:30N 50°59' E 001°42'611.2
2019-Jan-15 15:00N 50°58' E 001°51'0 0.0
2019-Jan-15 14:26N 50°58' E 001°51'3 7.2
2019-Jan-15 14:00N 50°58' E 001°46'918.2
2019-Jan-15 13:30N 51°02' E 001°33'918.5
2019-Jan-15 13:00N 51°06' E 001°20'1 1.8
2019-Jan-15 12:29N 51°07' E 001°20'0 0.0
2019-Jan-15 12:00N 51°07' E 001°20'714.7
2019-Jan-15 11:30N 51°05' E 001°31'918.4
2019-Jan-15 11:00N 50°59' E 001°42'510.8
2019-Jan-15 10:30N 50°58' E 001°51'0 0.0
2019-Jan-15 10:00N 50°58' E 001°51'1 2.1
2019-Jan-15 09:30N 50°58' E 001°49'918.2
2019-Jan-15 09:00N 51°00' E 001°35'1019.3
2019-Jan-15 08:30N 51°06' E 001°23'2 4.5
2019-Jan-15 08:00N 51°07' E 001°20'0 0.0
2019-Jan-15 07:30N 51°07' E 001°20'2 4.4
2019-Jan-15 07:01N 51°06' E 001°23'816.8
2019-Jan-15 06:30N 51°03' E 001°35'816.3
2019-Jan-15 06:00N 50°58' E 001°46'3 4.0
2019-Jan-15 05:12N 50°58' E 001°51'0 0.0
2019-Jan-15 04:54N 50°58' E 001°51'0 0.5
2019-Jan-15 04:30N 50°58' E 001°51'916.9
2019-Jan-15 03:59N 51°00' E 001°37'918.2
2019-Jan-15 03:31N 51°06' E 001°26'4 8.3
2019-Jan-15 03:00N 51°07' E 001°20'0 0.0
2019-Jan-15 02:30N 51°07' E 001°20'0 0.4
2019-Jan-15 02:00N 51°07' E 001°20'917.1
2019-Jan-15 01:30N 51°04' E 001°33'917.7
2019-Jan-15 01:00N 50°59' E 001°44'4 8.7
2019-Jan-15 00:30N 50°58' E 001°51'0 0.0
2019-Jan-15 00:01N 50°58' E 001°51'0 0.0
2019-Jan-14 23:29N 50°58' E 001°51'511.2
2019-Jan-14 23:01N 50°58' E 001°42'816.3
2019-Jan-14 22:30N 51°03' E 001°32'816.7
2019-Jan-14 22:00N 51°07' E 001°20'0 0.4
2019-Jan-14 21:29N 51°07' E 001°20'0 0.2
2019-Jan-14 21:00N 51°07' E 001°20'611.8
2019-Jan-14 20:30N 51°06' E 001°29'917.8
2019-Jan-14 20:00N 51°00' E 001°40'713.9
2019-Jan-14 19:31N 50°58' E 001°51'0 0.1
2019-Jan-14 18:55N 50°58' E 001°51'1 1.6
2019-Jan-14 18:30N 50°58' E 001°50'918.4
2019-Jan-14 18:00N 50°60' E 001°36'816.4
2019-Jan-14 17:30N 51°05' E 001°26'4 8.6
2019-Jan-14 17:00N 51°07' E 001°20'0 0.0
2019-Jan-14 16:28N 51°07' E 001°20'612.6
2019-Jan-14 16:00N 51°05' E 001°29'918.3
2019-Jan-14 15:30N 51°00' E 001°41'713.2
2019-Jan-14 15:00N 50°58' E 001°51'0 0.3
2019-Jan-14 14:30N 50°58' E 001°51'2 3.2
2019-Jan-14 14:00N 50°58' E 001°49'917.2
2019-Jan-14 13:30N 51°01' E 001°35'918.4
2019-Jan-14 13:00N 51°05' E 001°23'3 5.1
2019-Jan-14 12:29N 51°07' E 001°20'0 0.0
2019-Jan-14 11:58N 51°07' E 001°20'510.3
2019-Jan-14 11:31N 51°06' E 001°27'918.7
2019-Jan-14 11:01N 51°00' E 001°39'815.1
2019-Jan-14 10:31N 50°58' E 001°51'0 0.3
2019-Jan-14 10:00N 50°58' E 001°51'1 2.1
2019-Jan-14 09:30N 50°58' E 001°49'917.5
2019-Jan-14 09:00N 51°00' E 001°36'1019.6
2019-Jan-14 08:30N 51°06' E 001°24'3 4.9
2019-Jan-14 07:59N 51°07' E 001°20'0 0.0
2019-Jan-14 07:30N 51°07' E 001°20'3 5.9
2019-Jan-14 07:01N 51°07' E 001°25'816.2
2019-Jan-14 06:31N 51°02' E 001°35'815.6
2019-Jan-14 06:00N 50°58' E 001°46'3 6.4
2019-Jan-14 05:30N 50°58' E 001°51'0 0.0
2019-Jan-14 04:55N 50°58' E 001°51'410.3
2019-Jan-14 04:31N 50°58' E 001°44'918.1
2019-Jan-14 04:00N 51°02' E 001°32'612.0
2019-Jan-14 03:30N 51°06' E 001°24'3 5.9
2019-Jan-14 03:01N 51°07' E 001°20'0 0.0
2019-Jan-14 02:31N 51°07' E 001°20'1 1.7
2019-Jan-14 02:01N 51°07' E 001°21'816.8
2019-Jan-14 01:30N 51°03' E 001°33'917.0
2019-Jan-14 01:00N 50°58' E 001°44'4 8.1
2019-Jan-14 00:29N 50°58' E 001°51'0 0.0
2019-Jan-13 23:58N 50°58' E 001°51'0 0.2
2019-Jan-13 23:23N 50°58' E 001°51'615.1
2019-Jan-13 23:00N 50°58' E 001°42'917.8
2019-Jan-13 22:30N 51°02' E 001°29'815.4
2019-Jan-13 22:01N 51°07' E 001°20'0 0.2
2019-Jan-13 21:16N 51°07' E 001°20'0 0.3
2019-Jan-13 20:58N 51°07' E 001°20'613.8
2019-Jan-13 20:30N 51°05' E 001°30'917.8
2019-Jan-13 20:00N 51°00' E 001°42'612.5
2019-Jan-13 19:30N 50°58' E 001°51'0 0.0
2019-Jan-13 18:59N 50°58' E 001°51'0 0.3
2019-Jan-13 18:30N 50°58' E 001°51'816.4
2019-Jan-13 18:00N 50°59' E 001°38'  
Track history (hours):
 
Tides and Currents Weather Stations Pressure Air Temp Water Temp Dewpoint Dewpoint Depression Visibility Wind Speed Wind Dir Waves Ship Positions

Pride Of Kent

Operator: P & O Ferries

Last reported at 2019-Jan-23 17:30 UTC. Time now 2019-Jan-23 17:57 UTC.
Position N 51°06' E 001°23'.

Length 180 m; draft 6 m.

Type: Passenger vessel. MMSI: 232009000.

Date/timePositionNaut miles runAvg speedWind from/ knotsBaromVisibWave heightAir tempDewpointWater temp
2019-Jan-23 17:30N 51°06' E 001°23'2 3.0
2019-Jan-23 16:54N 51°07' E 001°20'0 0.2
2019-Jan-23 16:28N 51°07' E 001°20'612.4
2019-Jan-23 16:00N 51°06' E 001°29'917.7
2019-Jan-23 15:31N 51°00' E 001°40'714.2
2019-Jan-23 15:00N 50°58' E 001°51'0 0.2
2019-Jan-23 14:30N 50°58' E 001°51'1 2.1
2019-Jan-23 14:00N 50°58' E 001°49'1019.5
2019-Jan-23 13:30N 51°00' E 001°34'919.3
2019-Jan-23 13:01N 51°06' E 001°22'2 3.5
2019-Jan-23 12:30N 51°07' E 001°20'0 0.2
2019-Jan-23 11:58N 51°07' E 001°20'715.0
2019-Jan-23 11:30N 51°04' E 001°30'918.6
2019-Jan-23 11:00N 50°59' E 001°42'6 8.3
2019-Jan-23 10:20N 50°58' E 001°51'0 0.0
2019-Jan-23 10:00N 50°58' E 001°51'1 2.8
2019-Jan-23 09:30N 50°58' E 001°49'816.2
2019-Jan-23 09:00N 50°59' E 001°36'918.6
2019-Jan-23 08:30N 51°05' E 001°25'4 7.0
2019-Jan-23 08:00N 51°07' E 001°20'0 0.0
2019-Jan-23 07:30N 51°07' E 001°20'1 2.4
2019-Jan-23 07:01N 51°07' E 001°22'816.8
2019-Jan-23 06:31N 51°03' E 001°34'917.4
2019-Jan-23 06:01N 50°58' E 001°45'4 7.7
2019-Jan-23 05:31N 50°58' E 001°51'0 0.0
2019-Jan-23 05:00N 50°58' E 001°51'1 1.9
2019-Jan-23 04:31N 50°58' E 001°50'815.9
2019-Jan-23 04:00N 51°01' E 001°38'917.6
2019-Jan-23 03:31N 51°06' E 001°26'4 8.3
2019-Jan-23 03:00N 51°07' E 001°20'0 0.0
2019-Jan-23 02:30N 51°07' E 001°20'0 0.2
2019-Jan-23 02:00N 51°07' E 001°20'815.4
2019-Jan-23 01:30N 51°05' E 001°32'917.5
2019-Jan-23 01:01N 50°60' E 001°43'510.6
2019-Jan-23 00:30N 50°58' E 001°51'0 0.0
2019-Jan-22 23:50N 50°58' E 001°51'0 0.1
2019-Jan-22 23:30N 50°58' E 001°51'814.5
2019-Jan-22 22:58N 50°58' E 001°39'817.6
2019-Jan-22 22:30N 51°03' E 001°28'713.5
2019-Jan-22 22:01N 51°07' E 001°20'0 0.0
2019-Jan-22 21:30N 51°07' E 001°20'0 0.4
2019-Jan-22 20:58N 51°07' E 001°20'511.7
2019-Jan-22 20:30N 51°05' E 001°28'918.5
2019-Jan-22 20:01N 50°60' E 001°40'713.9
2019-Jan-22 19:30N 50°58' E 001°51'0 0.1
2019-Jan-22 19:00N 50°58' E 001°51'2 4.1
2019-Jan-22 18:31N 50°58' E 001°48'917.3
2019-Jan-22 18:00N 51°00' E 001°34'1019.5
2019-Jan-22 17:30N 51°06' E 001°22'2 2.1
2019-Jan-22 16:37N 51°07' E 001°20'0 1.3
2019-Jan-22 16:30N 51°07' E 001°20'917.2
2019-Jan-22 16:00N 51°04' E 001°33'918.9
2019-Jan-22 15:30N 50°58' E 001°45'4 7.8
2019-Jan-22 15:00N 50°58' E 001°51'0 0.0
2019-Jan-22 14:23N 50°58' E 001°51'410.7
2019-Jan-22 14:00N 50°58' E 001°44'918.8
2019-Jan-22 13:30N 51°03' E 001°32'917.1
2019-Jan-22 13:00N 51°07' E 001°20'0 0.5
2019-Jan-22 12:31N 51°07' E 001°20'1 1.1
2019-Jan-22 12:01N 51°07' E 001°21'816.9
2019-Jan-22 11:30N 51°03' E 001°33'917.1
2019-Jan-22 11:00N 50°59' E 001°44'4 4.8
2019-Jan-22 10:06N 50°58' E 001°51'0 0.0
2019-Jan-22 10:00N 50°58' E 001°51'2 4.1
2019-Jan-22 09:30N 50°58' E 001°48'918.0
2019-Jan-22 09:00N 51°00' E 001°34'918.6
2019-Jan-22 08:30N 51°06' E 001°23'2 3.6
2019-Jan-22 08:00N 51°07' E 001°20'0 0.0
2019-Jan-22 07:30N 51°07' E 001°20'2 4.2
2019-Jan-22 07:01N 51°07' E 001°23'816.3
2019-Jan-22 06:30N 51°03' E 001°34'918.2
2019-Jan-22 06:00N 50°58' E 001°47'3 5.2
2019-Jan-22 05:29N 50°58' E 001°51'0 0.0
2019-Jan-22 04:50N 50°58' E 001°51'0 0.7
2019-Jan-22 04:31N 50°58' E 001°51'816.9
2019-Jan-22 04:01N 50°59' E 001°37'918.4
2019-Jan-22 03:31N 51°05' E 001°26'4 4.3
2019-Jan-22 02:30N 51°07' E 001°20'0 0.0
2019-Jan-22 02:00N 51°07' E 001°20'612.6
2019-Jan-22 01:30N 51°06' E 001°30'918.6
2019-Jan-22 01:00N 51°00' E 001°41'6 9.4
2019-Jan-22 00:20N 50°58' E 001°51'0 0.0
2019-Jan-21 23:44N 50°58' E 001°51'0 0.1
2019-Jan-21 23:29N 50°58' E 001°51'917.6
2019-Jan-21 22:59N 50°59' E 001°37'918.3
2019-Jan-21 22:30N 51°05' E 001°27'5 9.9
2019-Jan-21 22:00N 51°07' E 001°20'0 0.0
2019-Jan-21 21:31N 51°07' E 001°20'0 0.0
2019-Jan-21 21:01N 51°07' E 001°20'612.2
2019-Jan-21 20:30N 51°06' E 001°29'918.1
2019-Jan-21 20:00N 50°59' E 001°40'713.6
2019-Jan-21 19:29N 50°58' E 001°51'0 0.0
2019-Jan-21 19:00N 50°58' E 001°51'3 5.4
2019-Jan-21 18:30N 50°58' E 001°47'917.2
2019-Jan-21 18:00N 51°01' E 001°34'918.2
2019-Jan-21 17:30N 51°06' E 001°23'2 3.6
2019-Jan-21 17:00N 51°07' E 001°20'0 0.3
2019-Jan-21 16:30N 51°07' E 001°20'917.6
2019-Jan-21 16:00N 51°03' E 001°33'1019.4
2019-Jan-21 15:31N 50°58' E 001°45'3 6.2
2019-Jan-21 14:57N 50°58' E 001°51'0 0.0
2019-Jan-21 14:30N 50°58' E 001°51'511.0
2019-Jan-21 14:00N 50°59' E 001°43'1019.8
2019-Jan-21 13:30N 51°04' E 001°29'711.5
2019-Jan-21 12:55N 51°07' E 001°20'0 0.0
2019-Jan-21 12:19N 51°07' E 001°20'0 0.6
2019-Jan-21 12:00N 51°07' E 001°20'715.1
2019-Jan-21 11:30N 51°05' E 001°32'918.4
2019-Jan-21 11:00N 50°59' E 001°43'5 8.3
2019-Jan-21 10:23N 50°58' E 001°51'0 0.0
2019-Jan-21 09:56N 50°58' E 001°51'0 0.7
2019-Jan-21 09:31N 50°58' E 001°51'918.3
2019-Jan-21 09:01N 51°00' E 001°36'1019.5
2019-Jan-21 08:31N 51°06' E 001°24'3 5.3
2019-Jan-21 07:59N 51°07' E 001°20'0 0.0
2019-Jan-21 07:22N 51°07' E 001°20'3 7.9
2019-Jan-21 07:00N 51°07' E 001°25'816.9
2019-Jan-21 06:31N 51°02' E 001°36'815.1
2019-Jan-21 06:00N 50°58' E 001°46'3 6.3
2019-Jan-21 05:29N 50°58' E 001°51'0 0.0
2019-Jan-21 04:55N 50°58' E 001°51'2 5.6
2019-Jan-21 04:30N 50°58' E 001°47'816.6
2019-Jan-21 04:00N 51°00' E 001°35'918.4
2019-Jan-21 03:30N 51°06' E 001°23'2 4.9
2019-Jan-21 03:00N 51°07' E 001°20'0 0.0
2019-Jan-21 02:30N 51°07' E 001°20'1 2.5
2019-Jan-21 02:00N 51°07' E 001°22'815.7
2019-Jan-21 01:31N 51°04' E 001°33'816.4
2019-Jan-21 01:00N 50°59' E 001°44'5 8.3
2019-Jan-21 00:26N 50°58' E 001°51'0 0.0
2019-Jan-20 23:53N 50°58' E 001°51'0 0.0
2019-Jan-20 23:30N 50°58' E 001°51'714.2
2019-Jan-20 23:00N 50°58' E 001°40'816.3
2019-Jan-20 22:30N 51°03' E 001°29'714.8
2019-Jan-20 22:00N 51°07' E 001°20'0 0.1
2019-Jan-20 21:30N 51°07' E 001°20'0 0.0
2019-Jan-20 21:00N 51°07' E 001°20'510.6
2019-Jan-20 20:31N 51°05' E 001°28'1019.1
2019-Jan-20 20:01N 51°00' E 001°41'713.8
2019-Jan-20 19:30N 50°58' E 001°51'0 0.0
2019-Jan-20 19:00N 50°58' E 001°51'4 7.1
2019-Jan-20 18:30N 50°58' E 001°45'816.1
2019-Jan-20 18:00N 51°01' E 001°34'817.0
2019-Jan-20 17:31N 51°06' E 001°22'2 4.4
2019-Jan-20 17:00N 51°07' E 001°20'0 0.0
2019-Jan-20 16:29N 51°07' E 001°20'612.3
2019-Jan-20 16:00N 51°05' E 001°28'1019.4
2019-Jan-20 15:30N 50°59' E 001°41'612.4
2019-Jan-20 15:00N 50°58' E 001°51'0 0.0
2019-Jan-20 14:27N 50°58' E 001°51'1 2.0
2019-Jan-20 14:00N 50°58' E 001°50'918.4
2019-Jan-20 13:30N 51°01' E 001°36'1020.1
2019-Jan-20 13:00N 51°07' E 001°23'2 3.6
2019-Jan-20 12:30N 51°07' E 001°20'0 0.6
2019-Jan-20 11:59N 51°07' E 001°20'715.6
2019-Jan-20 11:30N 51°04' E 001°31'918.5
2019-Jan-20 11:00N 50°59' E 001°43'5 8.4
2019-Jan-20 10:25N 50°58' E 001°51'0 0.0
2019-Jan-20 09:57N 50°58' E 001°51'0 0.5
2019-Jan-20 09:28N 50°58' E 001°51'918.5
2019-Jan-20 09:00N 50°60' E 001°37'1019.8
2019-Jan-20 08:30N 51°06' E 001°25'3 6.7
2019-Jan-20 08:00N 51°07' E 001°20'0 0.0
2019-Jan-20 07:30N 51°07' E 001°20'1 1.8
2019-Jan-20 07:00N 51°07' E 001°21'918.2
2019-Jan-20 06:30N 51°03' E 001°34'1019.1
2019-Jan-20 06:00N 50°58' E 001°47'2 4.6
2019-Jan-20 05:29N 50°58' E 001°51'0 0.0
2019-Jan-20 04:57N 50°58' E 001°51'1 2.0
2019-Jan-20 04:31N 50°58' E 001°50'816.8
2019-Jan-20 04:01N 51°00' E 001°37'1019.3
2019-Jan-20 03:31N 51°06' E 001°24'3 5.8
2019-Jan-20 03:00N 51°07' E 001°20'0 0.0
2019-Jan-20 02:30N 51°07' E 001°20'0 0.0
2019-Jan-20 02:00N 51°07' E 001°20'714.0
2019-Jan-20 01:30N 51°05' E 001°30'917.4
2019-Jan-20 01:00N 50°60' E 001°41'612.3
2019-Jan-20 00:30N 50°58' E 001°51'0 0.0
2019-Jan-20 00:00N 50°58' E 001°51'0 0.5
2019-Jan-19 23:17N 50°58' E 001°51'518.5
2019-Jan-19 23:01N 50°58' E 001°42'816.2
2019-Jan-19 22:30N 51°03' E 001°32'917.4
2019-Jan-19 22:00N 51°07' E 001°20'0 0.2
2019-Jan-19 21:25N 51°07' E 001°20'0 0.9
2019-Jan-19 21:00N 51°07' E 001°21'918.6
2019-Jan-19 20:30N 51°04' E 001°35'918.8
2019-Jan-19 20:01N 50°58' E 001°46'3 6.8
2019-Jan-19 19:30N 50°58' E 001°52'0 0.0
2019-Jan-19 19:00N 50°58' E 001°52'0 0.0
2019-Jan-19 18:30N 50°58' E 001°52'0 0.0
2019-Jan-19 17:59N 50°58' E 001°52'0 0.0
2019-Jan-19 17:26N 50°58' E 001°52'0 0.0
2019-Jan-19 16:58N 50°58' E 001°52'0 0.0
2019-Jan-19 16:27N 50°58' E 001°52'0 0.0
2019-Jan-19 15:57N 50°58' E 001°52'0 0.0
2019-Jan-19 15:30N 50°58' E 001°52'0 0.0
2019-Jan-19 15:00N 50°58' E 001°52'0 0.0
2019-Jan-19 14:30N 50°58' E 001°52'0 0.0
2019-Jan-19 14:00N 50°58' E 001°52'0 0.0
2019-Jan-19 13:29N 50°58' E 001°52'0 0.0
2019-Jan-19 13:00N 50°58' E 001°52'0 0.0
2019-Jan-19 12:30N 50°58' E 001°52'0 0.0
2019-Jan-19 12:00N 50°58' E 001°52'0 0.0
2019-Jan-19 11:30N 50°58' E 001°52'0 0.0
2019-Jan-19 11:00N 50°58' E 001°52'0 0.0
2019-Jan-19 10:30N 50°58' E 001°52'0 0.0
2019-Jan-19 10:00N 50°58' E 001°52'1 2.6
2019-Jan-19 09:31N 50°58' E 001°50'1019.2
2019-Jan-19 09:01N 51°00' E 001°35'918.1
2019-Jan-19 08:31N 51°06' E 001°24'3 4.9
2019-Jan-19 07:58N 51°07' E 001°20'0 0.0
2019-Jan-19 07:31N 51°07' E 001°20'0 0.5
2019-Jan-19 07:00N 51°07' E 001°20'816.8
2019-Jan-19 06:30N 51°04' E 001°32'1019.5
2019-Jan-19 06:01N 50°58' E 001°45'4 7.0
2019-Jan-19 05:27N 50°58' E 001°51'0 0.0
2019-Jan-19 04:59N 50°58' E 001°51'4 8.1
2019-Jan-19 04:30N 50°58' E 001°45'815.6
2019-Jan-19 04:00N 50°59' E 001°33'816.4
2019-Jan-19 03:31N 51°05' E 001°25'4 7.0
2019-Jan-19 03:00N 51°07' E 001°20'0 0.0
2019-Jan-19 02:30N 51°07' E 001°20'0 0.5
2019-Jan-19 02:00N 51°07' E 001°20'714.2
2019-Jan-19 01:30N 51°04' E 001°30'917.2
2019-Jan-19 01:00N 50°60' E 001°42'611.8
2019-Jan-19 00:30N 50°58' E 001°51'0 0.0
2019-Jan-18 23:59N 50°58' E 001°51'0 0.2
2019-Jan-18 23:27N 50°58' E 001°51'816.7
2019-Jan-18 23:00N 50°58' E 001°39'918.0
2019-Jan-18 22:30N 51°03' E 001°27'612.0
2019-Jan-18 22:00N 51°07' E 001°20'0 0.0
2019-Jan-18 21:30N 51°07' E 001°20'0 0.2
2019-Jan-18 20:59N 51°07' E 001°20'714.9
2019-Jan-18 20:31N 51°06' E 001°31'917.4
2019-Jan-18 20:01N 50°60' E 001°41'612.7
2019-Jan-18 19:31N 50°58' E 001°51'0 0.2
2019-Jan-18 18:56N 50°58' E 001°51'1 2.8
2019-Jan-18 18:31N 50°58' E 001°49'816.8
2019-Jan-18 18:01N 50°60' E 001°36'917.3
2019-Jan-18 17:31N 51°05' E 001°25'4 7.7
2019-Jan-18 17:00N 51°07' E 001°20'0 0.0
2019-Jan-18 16:30N 51°07' E 001°20'611.6
2019-Jan-18 16:00N 51°06' E 001°29'918.9
2019-Jan-18 15:30N 50°60' E 001°41'713.5
2019-Jan-18 15:00N 50°58' E 001°51'0 0.0
2019-Jan-18 14:29N 50°58' E 001°51'1 1.8
2019-Jan-18 14:00N 50°58' E 001°50'917.2
2019-Jan-18 13:30N 50°60' E 001°36'918.8
2019-Jan-18 13:00N 51°05' E 001°24'3 6.7
2019-Jan-18 12:31N 51°07' E 001°20'0 0.0
2019-Jan-18 12:00N 51°07' E 001°20'611.4
2019-Jan-18 11:31N 51°05' E 001°28'918.9
2019-Jan-18 11:01N 50°60' E 001°40'713.6
2019-Jan-18 10:30N 50°58' E 001°51'0 0.2
2019-Jan-18 09:59N 50°58' E 001°51'0 1.0
2019-Jan-18 09:30N 50°58' E 001°50'1019.0
2019-Jan-18 08:59N 51°01' E 001°35'919.4
2019-Jan-18 08:31N 51°06' E 001°23'2 4.3
2019-Jan-18 08:00N 51°07' E 001°20'0 0.0
2019-Jan-18 07:30N 51°07' E 001°20'1 1.4
2019-Jan-18 07:00N 51°07' E 001°21'918.7
2019-Jan-18 06:31N 51°02' E 001°34'918.5
2019-Jan-18 06:00N 50°58' E 001°47'3 4.8
2019-Jan-18 05:28N 50°58' E 001°51'0 0.0
2019-Jan-18 04:58N 50°58' E 001°51'0 0.8
2019-Jan-18 04:31N 50°58' E 001°51'816.0
2019-Jan-18 04:00N 50°59' E 001°38'917.9
2019-Jan-18 03:30N 51°05' E 001°26'5 9.2
2019-Jan-18 02:59N 51°07' E 001°20'0 0.0
2019-Jan-18 02:30N 51°07' E 001°20'0 0.5
2019-Jan-18 02:00N 51°07' E 001°20'816.5
2019-Jan-18 01:30N 51°05' E 001°33'917.1
2019-Jan-18 01:00N 50°59' E 001°43'510.5
2019-Jan-18 00:30N 50°58' E 001°51'0 0.0
2019-Jan-17 23:57N 50°58' E 001°51'511.9
2019-Jan-17 23:30N 50°58' E 001°43'1019.2
2019-Jan-17 23:00N 51°03' E 001°29'7 7.9
2019-Jan-17 22:05N 51°07' E 001°20'0 0.0
2019-Jan-17 21:57N 51°07' E 001°20'1 2.2
2019-Jan-17 21:30N 51°07' E 001°22'917.5
2019-Jan-17 21:01N 51°03' E 001°33'917.1
2019-Jan-17 20:31N 50°58' E 001°45'4 6.7
2019-Jan-17 19:57N 50°58' E 001°51'0 0.0
2019-Jan-17 19:24N 50°58' E 001°51'2 6.3
2019-Jan-17 19:00N 50°58' E 001°47'612.3
2019-Jan-17 18:29N 51°00' E 001°38'918.8
2019-Jan-17 18:01N 51°05' E 001°25'4 8.2
2019-Jan-17 17:30N 51°07' E 001°20'0 0.0
2019-Jan-17 16:59N 51°07' E 001°20'4 9.2
2019-Jan-17 16:30N 51°06' E 001°27'918.4
2019-Jan-17 16:00N 51°01' E 001°39'816.2
2019-Jan-17 15:30N 50°58' E 001°51'0 0.3
2019-Jan-17 15:00N 50°58' E 001°51'0 0.0
2019-Jan-17 14:30N 50°58' E 001°51'510.0
2019-Jan-17 14:01N 50°58' E 001°43'918.2
2019-Jan-17 13:31N 51°01' E 001°29'916.9
2019-Jan-17 13:00N 51°07' E 001°20'0 0.5
2019-Jan-17 12:30N 51°07' E 001°20'0 0.0
2019-Jan-17 11:59N 51°07' E 001°20'612.3
2019-Jan-17 11:30N 51°06' E 001°29'917.6
2019-Jan-17 11:00N 51°01' E 001°41'713.8
2019-Jan-17 10:30N 50°58' E 001°51'0 0.2
2019-Jan-17 09:57N 50°58' E 001°51'0 0.2
2019-Jan-17 09:30N 50°58' E 001°51'916.8
2019-Jan-17 08:59N 51°00' E 001°38'919.7
2019-Jan-17 08:30N 51°05' E 001°25'4 7.3
2019-Jan-17 08:00N 51°07' E 001°20'0 0.0
2019-Jan-17 07:30N 51°07' E 001°20'0 0.7
2019-Jan-17 07:01N 51°07' E 001°21'917.2
2019-Jan-17 06:31N 51°03' E 001°33'918.0
2019-Jan-17 06:01N 50°58' E 001°45'4 4.6
2019-Jan-17 05:09N 50°58' E 001°51'0 0.0
2019-Jan-17 04:49N 50°58' E 001°51'3 9.3
2019-Jan-17 04:31N 50°58' E 001°46'816.3
2019-Jan-17 04:00N 50°60' E 001°33'816.9
2019-Jan-17 03:31N 51°06' E 001°25'3 2.9
2019-Jan-17 02:25N 51°07' E 001°20'2 4.2
2019-Jan-17 02:01N 51°07' E 001°23'816.8
2019-Jan-17 01:30N 51°04' E 001°35'816.4
2019-Jan-17 01:01N 50°58' E 001°44'4 8.3
2019-Jan-17 00:30N 50°58' E 001°51'0 0.0
2019-Jan-17 00:00N 50°58' E 001°51'4 8.9
2019-Jan-16 23:30N 50°58' E 001°44'1019.2
2019-Jan-16 23:00N 51°03' E 001°31'815.7
2019-Jan-16 22:29N 51°07' E 001°20'0 0.0
2019-Jan-16 22:00N 51°07' E 001°20'0 0.3
2019-Jan-16 21:30N 51°07' E 001°20'816.6
2019-Jan-16 21:00N 51°03' E 001°32'917.9
2019-Jan-16 20:30N 50°59' E 001°44'5 5.0
2019-Jan-16 19:35N 50°58' E 001°51'0 0.0
2019-Jan-16 19:30N 50°58' E 001°51'2 4.9
2019-Jan-16 19:00N 50°58' E 001°47'612.3
2019-Jan-16 18:30N 50°58' E 001°37'918.2
2019-Jan-16 18:00N 51°04' E 001°26'5 4.6
2019-Jan-16 16:54N 51°07' E 001°20'1 3.0
2019-Jan-16 16:30N 51°07' E 001°22'917.2
2019-Jan-16 16:00N 51°04' E 001°34'918.4
2019-Jan-16 15:30N 50°58' E 001°46'3 6.1
2019-Jan-16 15:00N 50°58' E 001°51'0 0.0
2019-Jan-16 14:30N 50°58' E 001°51'714.0
2019-Jan-16 14:00N 50°59' E 001°40'918.4
2019-Jan-16 13:30N 51°04' E 001°28'6 4.0
2019-Jan-16 12:03N 51°07' E 001°20'0 0.9
2019-Jan-16 12:00N 51°07' E 001°20'816.4
2019-Jan-16 11:30N 51°04' E 001°32'918.6
2019-Jan-16 11:00N 50°59' E 001°44'5 5.3
2019-Jan-16 10:09N 50°58' E 001°51'0 0.0
2019-Jan-16 09:58N 50°58' E 001°51'510.3
2019-Jan-16 09:30N 50°58' E 001°44'918.4
2019-Jan-16 09:00N 51°03' E 001°31'816.2
2019-Jan-16 08:30N 51°07' E 001°20'0 0.0
2019-Jan-16 07:32N 51°07' E 001°20'0 0.0
2019-Jan-16 07:17N 51°07' E 001°20'1 2.3
2019-Jan-16 07:00N 51°07' E 001°21'817.0
2019-Jan-16 06:30N 51°03' E 001°33'917.5
2019-Jan-16 06:00N 50°58' E 001°45'4 6.8
2019-Jan-16 05:24N 50°58' E 001°51'0 0.0
2019-Jan-16 05:00N 50°58' E 001°51'0 0.8
2019-Jan-16 04:30N 50°58' E 001°50'917.8
2019-Jan-16 04:00N 50°58' E 001°36'815.8
2019-Jan-16 03:30N 51°04' E 001°28'6 3.9
2019-Jan-16 02:02N 51°07' E 001°20'0 2.3
2019-Jan-16 01:59N 51°07' E 001°20'715.4
2019-Jan-16 01:30N 51°04' E 001°31'918.9
2019-Jan-16 01:00N 50°59' E 001°43'5 8.7
2019-Jan-16 00:25N 50°58' E 001°51'0 0.0
2019-Jan-15 23:59N 50°58' E 001°51'0 0.0
2019-Jan-15 23:30N 50°58' E 001°51'4 8.6
2019-Jan-15 23:00N 50°58' E 001°44'917.0
2019-Jan-15 22:30N 51°03' E 001°33'917.7
2019-Jan-15 22:00N 51°07' E 001°21'1 1.1
2019-Jan-15 21:30N 51°07' E 001°20'0 0.0
2019-Jan-15 20:59N 51°07' E 001°20'511.0
2019-Jan-15 20:30N 51°06' E 001°28'917.7
2019-Jan-15 20:01N 51°01' E 001°40'815.3
2019-Jan-15 19:31N 50°58' E 001°51'0 0.3
2019-Jan-15 18:55N 50°58' E 001°51'2 5.9
2019-Jan-15 18:31N 50°58' E 001°47'1019.3
2019-Jan-15 18:01N 51°02' E 001°33'1019.0
2019-Jan-15 17:30N 51°07' E 001°21'0 0.3
2019-Jan-15 16:37N 51°07' E 001°20'0 1.3
2019-Jan-15 16:30N 51°07' E 001°20'714.7
2019-Jan-15 16:00N 51°06' E 001°32'918.7
2019-Jan-15 15:30N 50°59' E 001°42'611.2
2019-Jan-15 15:00N 50°58' E 001°51'0 0.0
2019-Jan-15 14:26N 50°58' E 001°51'3 7.2
2019-Jan-15 14:00N 50°58' E 001°46'918.2
2019-Jan-15 13:30N 51°02' E 001°33'918.5
2019-Jan-15 13:00N 51°06' E 001°20'1 1.8
2019-Jan-15 12:29N 51°07' E 001°20'0 0.0
2019-Jan-15 12:00N 51°07' E 001°20'714.7
2019-Jan-15 11:30N 51°05' E 001°31'918.4
2019-Jan-15 11:00N 50°59' E 001°42'510.8
2019-Jan-15 10:30N 50°58' E 001°51'0 0.0
2019-Jan-15 10:00N 50°58' E 001°51'1 2.1
2019-Jan-15 09:30N 50°58' E 001°49'918.2
2019-Jan-15 09:00N 51°00' E 001°35'1019.3
2019-Jan-15 08:30N 51°06' E 001°23'2 4.5
2019-Jan-15 08:00N 51°07' E 001°20'0 0.0
2019-Jan-15 07:30N 51°07' E 001°20'2 4.4
2019-Jan-15 07:01N 51°06' E 001°23'816.8
2019-Jan-15 06:30N 51°03' E 001°35'816.3
2019-Jan-15 06:00N 50°58' E 001°46'3 4.0
2019-Jan-15 05:12N 50°58' E 001°51'0 0.0
2019-Jan-15 04:54N 50°58' E 001°51'0 0.5
2019-Jan-15 04:30N 50°58' E 001°51'916.9
2019-Jan-15 03:59N 51°00' E 001°37'918.2
2019-Jan-15 03:31N 51°06' E 001°26'4 8.3
2019-Jan-15 03:00N 51°07' E 001°20'0 0.0
2019-Jan-15 02:30N 51°07' E 001°20'0 0.4
2019-Jan-15 02:00N 51°07' E 001°20'917.1
2019-Jan-15 01:30N 51°04' E 001°33'917.7
2019-Jan-15 01:00N 50°59' E 001°44'4 8.7
2019-Jan-15 00:30N 50°58' E 001°51'0 0.0
2019-Jan-15 00:01N 50°58' E 001°51'0 0.0
2019-Jan-14 23:29N 50°58' E 001°51'511.2
2019-Jan-14 23:01N 50°58' E 001°42'816.3
2019-Jan-14 22:30N 51°03' E 001°32'816.7
2019-Jan-14 22:00N 51°07' E 001°20'0 0.4
2019-Jan-14 21:29N 51°07' E 001°20'0 0.2
2019-Jan-14 21:00N 51°07' E 001°20'611.8
2019-Jan-14 20:30N 51°06' E 001°29'917.8
2019-Jan-14 20:00N 51°00' E 001°40'713.9
2019-Jan-14 19:31N 50°58' E 001°51'0 0.1
2019-Jan-14 18:55N 50°58' E 001°51'1 1.6
2019-Jan-14 18:30N 50°58' E 001°50'918.4
2019-Jan-14 18:00N 50°60' E 001°36'816.4
2019-Jan-14 17:30N 51°05' E 001°26'4 8.6
2019-Jan-14 17:00N 51°07' E 001°20'0 0.0
2019-Jan-14 16:28N 51°07' E 001°20'612.6
2019-Jan-14 16:00N 51°05' E 001°29'918.3
2019-Jan-14 15:30N 51°00' E 001°41'713.2
2019-Jan-14 15:00N 50°58' E 001°51'0 0.3
2019-Jan-14 14:30N 50°58' E 001°51'2 3.2
2019-Jan-14 14:00N 50°58' E 001°49'917.2
2019-Jan-14 13:30N 51°01' E 001°35'918.4
2019-Jan-14 13:00N 51°05' E 001°23'3 5.1
2019-Jan-14 12:29N 51°07' E 001°20'0 0.0
2019-Jan-14 11:58N 51°07' E 001°20'510.3
2019-Jan-14 11:31N 51°06' E 001°27'918.7
2019-Jan-14 11:01N 51°00' E 001°39'815.1
2019-Jan-14 10:31N 50°58' E 001°51'0 0.3
2019-Jan-14 10:00N 50°58' E 001°51'1 2.1
2019-Jan-14 09:30N 50°58' E 001°49'917.5
2019-Jan-14 09:00N 51°00' E 001°36'1019.6
2019-Jan-14 08:30N 51°06' E 001°24'3 4.9
2019-Jan-14 07:59N 51°07' E 001°20'0 0.0
2019-Jan-14 07:30N 51°07' E 001°20'3 5.9
2019-Jan-14 07:01N 51°07' E 001°25'816.2
2019-Jan-14 06:31N 51°02' E 001°35'815.6
2019-Jan-14 06:00N 50°58' E 001°46'3 6.4
2019-Jan-14 05:30N 50°58' E 001°51'0 0.0
2019-Jan-14 04:55N 50°58' E 001°51'410.3
2019-Jan-14 04:31N 50°58' E 001°44'918.1
2019-Jan-14 04:00N 51°02' E 001°32'612.0
2019-Jan-14 03:30N 51°06' E 001°24'3 5.9
2019-Jan-14 03:01N 51°07' E 001°20'0 0.0
2019-Jan-14 02:31N 51°07' E 001°20'1 1.7
2019-Jan-14 02:01N 51°07' E 001°21'816.8
2019-Jan-14 01:30N 51°03' E 001°33'917.0
2019-Jan-14 01:00N 50°58' E 001°44'4 8.1
2019-Jan-14 00:29N 50°58' E 001°51'0 0.0
2019-Jan-13 23:58N 50°58' E 001°51'0 0.2
2019-Jan-13 23:23N 50°58' E 001°51'615.1
2019-Jan-13 23:00N 50°58' E 001°42'917.8
2019-Jan-13 22:30N 51°02' E 001°29'815.4
2019-Jan-13 22:01N 51°07' E 001°20'0 0.2
2019-Jan-13 21:16N 51°07' E 001°20'0 0.3
2019-Jan-13 20:58N 51°07' E 001°20'613.8
2019-Jan-13 20:30N 51°05' E 001°30'917.8
2019-Jan-13 20:00N 51°00' E 001°42'612.5
2019-Jan-13 19:30N 50°58' E 001°51'0 0.0
2019-Jan-13 18:59N 50°58' E 001°51'0 0.3
2019-Jan-13 18:30N 50°58' E 001°51'816.4
2019-Jan-13 18:00N 50°59' E 001°38'  

Dump ship's entire track history